createdAt,value
2018-12-06T00:00:57.220Z,13.20
2018-12-06T00:03:31.525Z,13.27
2018-12-06T00:06:09.005Z,14.33
2018-12-06T00:08:43.487Z,14.47
2018-12-06T00:11:18.054Z,13.00
2018-12-06T00:16:25.050Z,13.90
2018-12-06T00:19:07.738Z,14.90
2018-12-06T00:21:42.367Z,13.00
2018-12-06T00:24:17.405Z,13.30
2018-12-06T00:26:54.569Z,13.73
2018-12-06T00:29:29.278Z,12.60
2018-12-06T00:32:04.390Z,12.67
2018-12-06T00:34:38.766Z,12.80
2018-12-06T00:37:15.805Z,12.87
2018-12-06T00:39:53.803Z,13.13
2018-12-06T00:42:29.602Z,12.73
2018-12-06T00:45:04.301Z,12.53
2018-12-06T00:47:38.633Z,13.00
2018-12-06T00:50:12.749Z,13.70
2018-12-06T00:52:47.530Z,12.33
2018-12-06T00:55:21.732Z,12.67
2018-12-06T00:57:56.373Z,12.70
2018-12-06T01:00:30.181Z,12.37
2018-12-06T01:03:04.031Z,12.93
2018-12-06T01:05:37.947Z,12.47
2018-12-06T01:08:12.985Z,12.00
2018-12-06T01:10:47.642Z,13.30
2018-12-06T01:13:22.374Z,12.40
2018-12-06T01:16:04.912Z,13.87
2018-12-06T01:18:44.505Z,13.50
2018-12-06T01:21:23.807Z,13.57
2018-12-06T01:23:58.740Z,13.60
2018-12-06T01:26:35.933Z,13.63
2018-12-06T01:29:10.639Z,13.17
2018-12-06T01:31:45.297Z,14.53
2018-12-06T01:34:24.074Z,13.93
2018-12-06T01:37:01.029Z,14.70
2018-12-06T01:39:40.588Z,13.73
2018-12-06T01:42:19.447Z,13.73
2018-12-06T01:44:56.122Z,13.03
2018-12-06T01:47:31.144Z,13.93
2018-12-06T01:50:05.580Z,14.23
2018-12-06T01:52:41.050Z,13.87
2018-12-06T01:55:15.369Z,14.37
2018-12-06T01:57:50.161Z,13.10
2018-12-06T02:00:25.229Z,13.37
2018-12-06T02:02:59.551Z,14.33
2018-12-06T02:05:33.779Z,15.57
2018-12-06T02:08:08.557Z,15.27
2018-12-06T02:10:42.864Z,16.00
2018-12-06T02:13:17.486Z,13.80
2018-12-06T02:15:51.403Z,13.30
2018-12-06T02:18:25.479Z,13.87
2018-12-06T02:20:59.487Z,13.30
2018-12-06T02:23:34.002Z,14.13
2018-12-06T02:26:07.939Z,12.80
2018-12-06T02:28:42.009Z,13.50
2018-12-06T02:31:15.957Z,13.13
2018-12-06T02:33:49.871Z,12.53
2018-12-06T02:36:23.710Z,12.27
2018-12-06T02:38:58.101Z,13.30
2018-12-06T02:41:33.762Z,12.73
2018-12-06T02:44:07.970Z,12.47
2018-12-06T02:46:42.321Z,13.83
2018-12-06T02:49:16.924Z,12.73
2018-12-06T02:51:50.910Z,13.17
2018-12-06T02:54:25.877Z,12.83
2018-12-06T02:57:00.570Z,12.43
2018-12-06T02:59:35.221Z,13.00
2018-12-06T03:02:09.367Z,11.80
2018-12-06T03:04:43.312Z,11.23
2018-12-06T03:07:17.226Z,10.67
2018-12-06T03:09:50.993Z,11.67
2018-12-06T03:12:25.254Z,11.87
2018-12-06T03:14:59.330Z,12.43
2018-12-06T03:17:33.971Z,11.80
2018-12-06T03:20:08.866Z,11.80
2018-12-06T03:22:46.375Z,12.23
2018-12-06T03:25:20.241Z,11.77
2018-12-06T03:27:54.265Z,11.73
2018-12-06T03:30:28.397Z,12.30
2018-12-06T03:33:02.507Z,11.60
2018-12-06T03:35:37.178Z,12.20
2018-12-06T03:38:11.177Z,11.97
2018-12-06T03:40:45.109Z,12.00
2018-12-06T03:43:19.339Z,11.43
2018-12-06T03:45:53.937Z,11.43
2018-12-06T03:48:27.797Z,10.90
2018-12-06T03:51:01.714Z,10.63
2018-12-06T03:53:35.639Z,10.70
2018-12-06T03:56:09.667Z,11.73
2018-12-06T03:58:43.739Z,11.30
2018-12-06T04:01:17.681Z,10.70
2018-12-06T04:03:51.738Z,10.73
2018-12-06T04:06:26.508Z,10.93
2018-12-06T04:09:01.302Z,10.57
2018-12-06T04:11:35.315Z,11.27
2018-12-06T04:14:09.259Z,10.37
2018-12-06T04:16:43.670Z,10.70
2018-12-06T04:19:17.450Z,10.97
2018-12-06T04:29:23.849Z,11.23
2018-12-06T04:31:57.747Z,11.97
2018-12-06T04:34:32.093Z,11.77
2018-12-06T04:37:06.778Z,12.30
2018-12-06T04:39:40.799Z,11.30
2018-12-06T04:42:14.902Z,12.17
2018-12-06T04:44:48.796Z,10.97
2018-12-06T04:47:23.018Z,11.23
2018-12-06T04:49:57.237Z,12.10
2018-12-06T04:52:31.292Z,11.53
2018-12-06T04:55:05.321Z,10.70
2018-12-06T04:57:39.221Z,10.77
2018-12-06T05:00:13.341Z,10.77
2018-12-06T05:02:47.533Z,10.67
2018-12-06T05:05:21.321Z,11.47
2018-12-06T05:07:55.430Z,12.13
2018-12-06T05:10:29.561Z,11.80
2018-12-06T05:13:03.507Z,10.90
2018-12-06T05:15:37.602Z,10.97
2018-12-06T05:18:11.497Z,11.70
2018-12-06T05:20:45.653Z,10.77
2018-12-06T05:23:19.755Z,10.63
2018-12-06T05:25:53.736Z,10.70
2018-12-06T05:30:58.670Z,11.03
2018-12-06T05:33:32.963Z,11.80
2018-12-06T05:36:07.422Z,10.80
2018-12-06T05:38:41.823Z,11.07
2018-12-06T05:41:16.826Z,11.20
2018-12-06T05:43:51.065Z,12.25
2018-12-06T05:46:24.919Z,11.77
2018-12-06T05:49:00.999Z,11.50
2018-12-06T05:51:36.041Z,10.30
2018-12-06T05:54:11.140Z,11.00
2018-12-06T05:56:45.641Z,10.83
2018-12-06T05:59:19.466Z,11.27
2018-12-06T06:01:53.700Z,11.80
2018-12-06T06:04:28.631Z,13.45
2018-12-06T06:07:02.903Z,12.23
2018-12-06T06:09:37.766Z,13.30
2018-12-06T06:12:11.904Z,13.00
2018-12-06T06:14:47.022Z,12.07
2018-12-06T06:17:21.530Z,12.10
2018-12-06T06:19:55.389Z,12.60
2018-12-06T06:22:29.770Z,11.90
2018-12-06T06:25:04.659Z,12.03
2018-12-06T06:27:39.391Z,11.70
2018-12-06T06:32:44.945Z,12.90
2018-12-06T06:35:18.985Z,11.57
2018-12-06T06:37:52.904Z,11.30
2018-12-06T06:40:27.027Z,10.40
2018-12-06T06:43:01.032Z,12.10
2018-12-06T06:45:34.869Z,12.10
2018-12-06T06:48:09.635Z,11.00
2018-12-06T06:50:43.711Z,11.00
2018-12-06T06:53:18.444Z,11.63
2018-12-06T06:55:52.239Z,10.47
2018-12-06T06:58:26.215Z,10.77
2018-12-06T07:01:00.156Z,10.80
2018-12-06T07:03:34.126Z,10.80
2018-12-06T07:06:08.231Z,10.67
2018-12-06T07:08:42.262Z,10.73
2018-12-06T07:11:16.401Z,11.43
2018-12-06T07:13:51.133Z,11.00
2018-12-06T07:16:25.411Z,10.80
2018-12-06T07:18:59.634Z,10.97
2018-12-06T07:21:33.655Z,11.77
2018-12-06T07:24:07.904Z,11.00
2018-12-06T07:26:40.346Z,10.90
2018-12-06T07:29:14.694Z,10.70
2018-12-06T07:34:20.336Z,9.43
2018-12-06T07:36:54.399Z,10.80
2018-12-06T07:39:28.445Z,10.50
2018-12-06T07:42:03.162Z,9.80
2018-12-06T07:44:37.443Z,9.83
2018-12-06T07:47:11.974Z,9.83
2018-12-06T07:49:46.622Z,9.30
2018-12-06T07:52:20.740Z,8.80
2018-12-06T07:54:54.638Z,9.07
2018-12-06T07:57:28.949Z,9.30
2018-12-06T08:00:02.977Z,11.03
2018-12-06T08:02:36.914Z,9.07
2018-12-06T08:05:11.957Z,10.87
2018-12-06T08:07:46.830Z,8.77
2018-12-06T08:10:21.447Z,10.10
2018-12-06T08:12:55.581Z,9.63
2018-12-06T08:15:29.619Z,6.93
2018-12-06T08:18:03.681Z,7.70
2018-12-06T08:20:37.789Z,6.50
2018-12-06T08:23:11.852Z,6.03
2018-12-06T08:25:45.809Z,5.07
2018-12-06T08:28:19.892Z,5.37
2018-12-06T08:30:53.760Z,5.83
2018-12-06T08:33:27.641Z,5.50
2018-12-06T08:36:01.559Z,5.00
2018-12-06T08:38:35.565Z,4.67
2018-12-06T08:41:09.394Z,5.58
2018-12-06T08:43:43.407Z,4.60
2018-12-06T08:46:17.236Z,5.10
2018-12-06T08:48:51.318Z,5.60
2018-12-06T08:51:25.346Z,5.60
2018-12-06T08:53:59.495Z,4.63
2018-12-06T08:56:34.315Z,4.20
2018-12-06T08:59:08.966Z,4.13
2018-12-06T09:01:42.918Z,4.10
2018-12-06T09:04:16.984Z,4.30
2018-12-06T09:06:50.922Z,3.70
2018-12-06T09:09:25.090Z,4.67
2018-12-06T09:11:59.027Z,3.93
2018-12-06T09:14:33.811Z,3.77
2018-12-06T09:17:07.688Z,3.70
2018-12-06T09:19:41.561Z,3.70
2018-12-06T09:22:15.502Z,3.63
2018-12-06T09:24:49.464Z,3.63
2018-12-06T09:27:24.205Z,3.40
2018-12-06T09:29:58.287Z,3.13
2018-12-06T09:32:32.483Z,2.67
2018-12-06T09:37:38.164Z,2.83
2018-12-06T09:40:12.196Z,3.13
2018-12-06T09:42:46.256Z,3.27
2018-12-06T09:45:20.409Z,2.90
2018-12-06T09:47:54.870Z,3.07
2018-12-06T09:50:29.265Z,3.00
2018-12-06T09:53:03.187Z,2.70
2018-12-06T09:55:37.055Z,2.73
2018-12-06T09:58:11.190Z,2.43
2018-12-06T10:00:45.911Z,2.30
2018-12-06T10:03:19.944Z,2.70
2018-12-06T10:05:54.688Z,2.43
2018-12-06T10:08:28.534Z,2.87
2018-12-06T10:11:02.650Z,2.57
2018-12-06T10:13:36.923Z,2.47
2018-12-06T10:16:10.819Z,2.70
2018-12-06T10:18:45.040Z,2.50
2018-12-06T10:21:19.731Z,2.50
2018-12-06T10:23:54.369Z,2.60
2018-12-06T10:26:29.062Z,2.23
2018-12-06T10:29:02.948Z,2.30
2018-12-06T10:31:37.133Z,2.30
2018-12-06T10:34:12.010Z,2.37
2018-12-06T10:39:16.563Z,2.40
2018-12-06T10:41:50.512Z,2.80
2018-12-06T10:44:29.630Z,2.00
2018-12-06T10:47:03.662Z,3.03
2018-12-06T10:49:37.713Z,2.60
2018-12-06T10:52:11.582Z,2.20
2018-12-06T10:54:46.295Z,2.60
2018-12-06T10:57:20.491Z,2.33
2018-12-06T10:59:55.208Z,2.07
2018-12-06T11:02:35.208Z,2.20
2018-12-06T11:05:10.135Z,2.10
2018-12-06T11:07:43.991Z,2.63
2018-12-06T11:10:18.021Z,2.30
2018-12-06T11:12:51.922Z,22.97
2018-12-06T11:15:25.916Z,3.00
2018-12-06T11:18:00.016Z,2.83
2018-12-06T11:20:34.788Z,4.07
2018-12-06T11:23:09.558Z,3.77
2018-12-06T11:25:44.283Z,2.23
2018-12-06T11:28:18.247Z,2.20
2018-12-06T11:30:52.976Z,2.23
2018-12-06T11:33:27.711Z,2.20
2018-12-06T11:36:01.643Z,3.17
2018-12-06T11:38:35.509Z,2.20
2018-12-06T11:41:10.075Z,2.60
2018-12-06T11:43:44.193Z,2.60
2018-12-06T11:46:18.866Z,2.10
2018-12-06T11:48:52.977Z,2.43
2018-12-06T11:51:27.014Z,2.07
2018-12-06T11:54:01.089Z,2.00
2018-12-06T11:56:35.719Z,2.07
2018-12-06T11:59:09.841Z,2.17
2018-12-06T12:01:44.669Z,2.37
2018-12-06T12:04:19.332Z,3.30
2018-12-06T12:06:53.385Z,2.10
2018-12-06T12:09:27.900Z,2.17
2018-12-06T12:12:01.935Z,2.10
2018-12-06T12:14:35.972Z,2.60
2018-12-06T12:17:09.773Z,2.40
2018-12-06T12:19:43.697Z,2.43
2018-12-06T12:22:17.679Z,2.47
2018-12-06T12:24:51.611Z,2.90
2018-12-06T12:27:24.074Z,2.13
2018-12-06T12:29:58.535Z,2.50
2018-12-06T12:32:33.023Z,2.43
2018-12-06T12:35:07.803Z,2.70
2018-12-06T12:37:41.894Z,2.60
2018-12-06T12:42:46.851Z,2.87
2018-12-06T12:45:21.309Z,2.43
2018-12-06T12:47:55.414Z,2.40
2018-12-06T12:50:29.682Z,1.93
2018-12-06T12:53:04.609Z,2.17
2018-12-06T12:55:39.114Z,3.00
2018-12-06T12:58:13.295Z,2.23
2018-12-06T13:00:48.039Z,2.00
2018-12-06T13:03:22.245Z,2.60
2018-12-06T13:05:56.062Z,2.50
2018-12-06T13:08:30.933Z,2.20
2018-12-06T13:11:04.868Z,2.43
2018-12-06T13:13:39.578Z,2.50
2018-12-06T13:16:13.622Z,2.80
2018-12-06T13:18:47.815Z,2.53
2018-12-06T13:21:22.584Z,2.33
2018-12-06T13:23:56.697Z,2.40
2018-12-06T13:26:31.594Z,2.70
2018-12-06T13:29:06.396Z,2.63
2018-12-06T13:31:40.524Z,2.60
2018-12-06T13:34:15.251Z,2.60
2018-12-06T13:36:50.823Z,2.87
2018-12-06T13:39:25.679Z,2.83
2018-12-06T13:44:29.974Z,2.40
2018-12-06T13:47:05.082Z,3.17
2018-12-06T13:49:41.853Z,3.40
2018-12-06T13:52:16.799Z,3.73
2018-12-06T13:54:52.560Z,2.97
2018-12-06T13:57:27.308Z,3.20
2018-12-06T14:00:02.156Z,2.93
2018-12-06T14:02:36.809Z,3.10
2018-12-06T14:05:12.133Z,2.80
2018-12-06T14:07:46.635Z,3.07
2018-12-06T14:10:21.552Z,3.13
2018-12-06T14:12:56.297Z,2.70
2018-12-06T14:15:31.233Z,2.90
2018-12-06T14:18:06.108Z,2.80
2018-12-06T14:20:40.995Z,2.40
2018-12-06T14:23:16.073Z,2.97
2018-12-06T14:25:50.788Z,3.03
2018-12-06T14:28:26.106Z,2.80
2018-12-06T14:31:00.847Z,2.80
2018-12-06T14:33:35.675Z,2.80
2018-12-06T14:36:10.611Z,2.33
2018-12-06T14:38:45.045Z,2.47
2018-12-06T14:41:19.904Z,2.63
2018-12-06T14:43:54.848Z,3.00
2018-12-06T14:46:29.371Z,3.10
2018-12-06T14:49:04.585Z,3.27
2018-12-06T14:51:38.837Z,2.70
2018-12-06T14:54:13.058Z,2.20
2018-12-06T14:56:48.089Z,2.43
2018-12-06T14:59:23.108Z,2.40
2018-12-06T15:01:57.654Z,2.40
2018-12-06T15:04:32.498Z,2.90
2018-12-06T15:07:07.300Z,2.03
2018-12-06T15:09:42.262Z,2.53
2018-12-06T15:12:17.183Z,2.40
2018-12-06T15:14:51.984Z,2.60
2018-12-06T15:17:26.792Z,2.67
2018-12-06T15:20:01.162Z,2.60
2018-12-06T15:22:35.702Z,3.10
2018-12-06T15:25:10.085Z,2.87
2018-12-06T15:27:44.755Z,2.97
2018-12-06T15:30:19.726Z,3.03
2018-12-06T15:32:54.661Z,2.60
2018-12-06T15:35:30.062Z,2.60
2018-12-06T15:38:04.716Z,2.73
2018-12-06T15:40:41.304Z,2.37
2018-12-06T15:43:20.290Z,2.30
2018-12-06T15:45:55.657Z,3.20
2018-12-06T15:48:32.623Z,2.87
2018-12-06T15:51:06.950Z,4.12
2018-12-06T15:53:42.403Z,3.00
2018-12-06T15:56:16.331Z,3.70
2018-12-06T15:58:51.038Z,3.00
2018-12-06T16:01:25.866Z,3.00
2018-12-06T16:04:00.583Z,3.83
2018-12-06T16:06:34.781Z,2.90
2018-12-06T16:09:12.937Z,2.80
2018-12-06T16:11:48.547Z,2.60
2018-12-06T16:14:23.669Z,3.00
2018-12-06T16:17:06.908Z,3.20
2018-12-06T16:19:43.470Z,2.83
2018-12-06T16:22:27.003Z,3.30
2018-12-06T16:25:01.328Z,6.70
2018-12-06T16:27:38.245Z,3.30
2018-12-06T16:30:13.915Z,3.50
2018-12-06T16:32:48.157Z,6.20
2018-12-06T16:35:24.881Z,25.37
2018-12-06T16:37:58.926Z,16.57
2018-12-06T16:40:35.034Z,9.00
2018-12-06T16:43:09.483Z,10.83
2018-12-06T16:45:46.068Z,16.83
2018-12-06T16:48:23.656Z,30.90
2018-12-06T16:50:58.059Z,24.03
2018-12-06T16:53:36.611Z,7.23
2018-12-06T16:56:12.553Z,12.37
2018-12-06T16:58:47.986Z,4.40
2018-12-06T17:01:22.303Z,5.33
2018-12-06T17:04:04.215Z,8.70
2018-12-06T17:06:41.890Z,14.57
2018-12-06T17:09:16.122Z,7.20
2018-12-06T17:11:53.578Z,8.43
2018-12-06T17:14:29.534Z,9.07
2018-12-06T17:17:03.763Z,7.10
2018-12-06T17:19:38.336Z,5.70
2018-12-06T17:22:12.321Z,13.37
2018-12-06T17:24:46.975Z,7.27
2018-12-06T17:27:20.807Z,6.13
2018-12-06T17:29:54.981Z,12.77
2018-12-06T17:32:29.949Z,4.37
2018-12-06T17:35:04.805Z,4.00
2018-12-06T17:37:39.516Z,4.20
2018-12-06T17:40:46.551Z,3.10
2018-12-06T17:43:20.457Z,3.55
2018-12-06T17:45:54.538Z,3.27
2018-12-06T17:48:28.589Z,4.53
2018-12-06T17:51:02.732Z,3.20
2018-12-06T17:53:37.390Z,3.70
2018-12-06T17:56:11.448Z,4.10
2018-12-06T17:58:46.223Z,4.13
2018-12-06T18:01:20.972Z,5.50
2018-12-06T18:03:55.066Z,4.03
2018-12-06T18:06:29.388Z,4.90
2018-12-06T18:09:05.324Z,4.80
2018-12-06T18:11:39.905Z,4.53
2018-12-06T18:14:13.820Z,4.20
2018-12-06T18:16:47.651Z,8.90
2018-12-06T18:19:21.878Z,6.20
2018-12-06T18:21:55.910Z,4.33
2018-12-06T18:24:30.134Z,6.50
2018-12-06T18:27:04.170Z,3.97
2018-12-06T18:29:36.677Z,6.83
2018-12-06T18:32:10.950Z,6.30
2018-12-06T18:34:44.869Z,7.07
2018-12-06T18:37:19.023Z,6.20
2018-12-06T18:39:53.046Z,4.67
2018-12-06T18:42:26.937Z,4.33
2018-12-06T18:45:01.059Z,5.50
2018-12-06T18:47:35.017Z,4.00
2018-12-06T18:50:08.868Z,5.63
2018-12-06T18:52:42.674Z,4.30
2018-12-06T18:55:16.898Z,5.40
2018-12-06T18:57:51.033Z,5.60
2018-12-06T19:00:25.833Z,3.77
2018-12-06T19:02:59.968Z,4.23
2018-12-06T19:05:34.098Z,5.00
2018-12-06T19:08:08.928Z,6.20
2018-12-06T19:10:43.131Z,5.67
2018-12-06T19:13:17.122Z,5.33
2018-12-06T19:15:51.447Z,4.20
2018-12-06T19:18:25.782Z,9.00
2018-12-06T19:21:02.433Z,9.80
2018-12-06T19:23:36.579Z,8.90
2018-12-06T19:26:11.182Z,6.10
2018-12-06T19:28:45.051Z,4.17
2018-12-06T19:31:19.264Z,3.90
2018-12-06T19:33:54.180Z,3.17
2018-12-06T19:36:28.727Z,4.27
2018-12-06T19:39:06.471Z,3.60
2018-12-06T19:41:40.435Z,2.80
2018-12-06T19:44:14.794Z,3.23
2018-12-06T19:46:51.406Z,3.73
2018-12-06T19:49:25.681Z,2.97
2018-12-06T19:52:03.059Z,2.60
2018-12-06T19:54:37.935Z,2.40
2018-12-06T19:57:14.553Z,3.03
2018-12-06T19:59:48.491Z,2.87
2018-12-06T20:02:23.431Z,2.67
2018-12-06T20:04:57.521Z,2.37
2018-12-06T20:07:32.659Z,2.33
2018-12-06T20:10:10.026Z,2.50
2018-12-06T20:12:45.687Z,3.60
2018-12-06T20:15:21.929Z,3.50
2018-12-06T20:17:56.224Z,2.40
2018-12-06T20:20:32.271Z,2.50
2018-12-06T20:23:06.506Z,2.47
2018-12-06T20:25:41.580Z,2.80
2018-12-06T20:28:16.556Z,2.50
2018-12-06T20:30:51.298Z,2.90
2018-12-06T20:33:23.918Z,4.13
2018-12-06T20:35:58.195Z,6.30
2018-12-06T20:38:30.979Z,6.43
2018-12-06T20:41:05.768Z,6.67
2018-12-06T20:43:40.646Z,5.57
2018-12-06T20:46:15.400Z,3.80
2018-12-06T20:48:50.334Z,4.40
2018-12-06T20:51:24.246Z,2.57
2018-12-06T20:53:58.477Z,3.20
2018-12-06T20:56:32.391Z,2.87
2018-12-06T20:59:08.112Z,3.10
2018-12-06T21:01:42.563Z,2.70
2018-12-06T21:04:17.431Z,3.23
2018-12-06T21:06:52.624Z,2.75
2018-12-06T21:09:28.864Z,3.40
2018-12-06T21:12:06.343Z,2.40
2018-12-06T21:14:40.809Z,7.83
2018-12-06T21:17:17.610Z,8.87
2018-12-06T21:19:54.305Z,7.73
2018-12-06T21:22:30.806Z,7.30
2018-12-06T21:25:07.206Z,7.60
2018-12-06T21:27:44.453Z,8.67
2018-12-06T21:30:21.357Z,5.50
2018-12-06T21:32:56.533Z,3.97
2018-12-06T21:35:29.236Z,3.27
2018-12-06T21:38:03.350Z,2.90
2018-12-06T21:40:37.302Z,2.22
2018-12-06T21:43:12.501Z,3.07
2018-12-06T21:45:47.285Z,1.80
2018-12-06T21:48:23.399Z,3.97
2018-12-06T21:50:59.690Z,2.10
2018-12-06T21:53:35.485Z,2.50
2018-12-06T21:56:09.669Z,1.97
2018-12-06T21:58:46.942Z,2.00
2018-12-06T22:01:23.736Z,1.47
2018-12-06T22:04:00.430Z,1.60
2018-12-06T22:06:37.364Z,2.03
2018-12-06T22:09:13.717Z,2.10
2018-12-06T22:11:48.758Z,2.50
2018-12-06T22:14:23.652Z,1.93
2018-12-06T22:16:56.354Z,1.77
2018-12-06T22:19:30.716Z,1.60
2018-12-06T22:22:03.608Z,3.20
2018-12-06T22:24:37.471Z,1.47
2018-12-06T22:27:12.318Z,2.43
2018-12-06T22:29:44.895Z,2.50
2018-12-06T22:32:19.319Z,1.37
2018-12-06T22:34:53.668Z,2.00
2018-12-06T22:37:28.388Z,1.70
2018-12-06T22:40:02.638Z,2.23
2018-12-06T22:42:36.819Z,2.47
2018-12-06T22:45:16.739Z,1.50
2018-12-06T22:47:51.218Z,2.43
2018-12-06T22:50:25.881Z,1.63
2018-12-06T22:52:59.989Z,2.70
2018-12-06T22:55:34.543Z,2.53
2018-12-06T22:58:09.014Z,2.03
2018-12-06T23:00:46.018Z,1.33
2018-12-06T23:03:22.181Z,3.03
2018-12-06T23:05:56.191Z,1.70
2018-12-06T23:08:32.244Z,2.90
2018-12-06T23:11:08.568Z,2.77
2018-12-06T23:13:43.334Z,3.37
2018-12-06T23:16:18.212Z,1.63
2018-12-06T23:18:50.639Z,1.60
2018-12-06T23:21:25.251Z,2.37
2018-12-06T23:23:58.001Z,3.47
2018-12-06T23:26:34.455Z,2.50
2018-12-06T23:29:11.070Z,4.07
2018-12-06T23:31:46.964Z,2.47
2018-12-06T23:34:23.106Z,2.40
2018-12-06T23:36:59.442Z,4.47
2018-12-06T23:39:35.733Z,5.50
2018-12-06T23:42:09.870Z,1.10
2018-12-06T23:44:44.677Z,3.03
2018-12-06T23:47:18.522Z,1.87
2018-12-06T23:49:53.038Z,2.33
2018-12-06T23:52:27.184Z,2.53
2018-12-06T23:54:59.907Z,1.90
2018-12-06T23:57:34.291Z,1.87
